• Join FlightAware (Why Join?)
  • Login
  • US Flag 
02:42AM EDT


 

Airport Tracker/Info


-or-


 

Live Flight TrackerFlight Track Log ✈ FLG3933 ✈ 09-Oct-2013 ✈ KMSP - KGRB

Flight Track Log - Related Links

Times and Time Zones

All times are in EDT time to prevent confusion due to time zone crossing. See the FLG3933 flight status page for this flight to view local times or setup timezone preferences in your user account.

Time Position Orientation Groundspeed Altitude Reporting Facility
EDT Latitude Longitude Course Direction KTS MPH feet Rate Location/Type
11:10AM 44.8833 -93.1833 101° East 158 182 1,800  Level Minneapolis TRACON
11:11AM 44.8767 -93.1342 101° East 184 212 3,000 1,980 Climbing Minneapolis Center
11:12AM 44.9267 -93.0736 41° Northeast 258 297 5,200 2,460 Climbing Minneapolis Center
11:13AM 45.0025 -93.0353 20° North 288 331 8,100 2,700 Climbing Minneapolis Center
11:14AM 45.0706 -92.9614 37° Northeast 324 373 10,900 2,280 Climbing Minneapolis Center
11:15AM 45.1111 -92.8433 64° Northeast 333 383 12,900 1,320 Climbing Minneapolis Center
11:16AM 45.1594 -92.7033 64° Northeast 394 453 13,700 720 Climbing Minneapolis Center
11:17AM 45.1911 -92.5414 74° East 430 495 14,500 1,380 Climbing Minneapolis Center
11:18AM 45.2164 -92.3425 80° East 425 489 16,600 1,800 Climbing Minneapolis Center
11:19AM 45.2336 -92.1783 81° East 419 482 18,300 1,740 Climbing Minneapolis Center
11:20AM 45.2400 -92.0183 87° East 416 479 20,200 1,800 Climbing Minneapolis Center
11:21AM 45.2150 -91.8625 103° East 406 467 22,100 1,320 Climbing Minneapolis Center
11:22AM 45.1833 -91.7086 106° East 404 465 23,000 420 Climbing Minneapolis Center
11:23AM 45.1531 -91.5419 104° East 423 487 23,000  Level Minneapolis Center
11:24AM 45.1156 -91.3353 104° East 445 512 23,000  Level Minneapolis Center
11:25AM 45.0831 -91.1622 105° East 452 520 23,000  Level Minneapolis Center
11:26AM 45.0525 -90.9900 104° East 453 521 23,000  Level Minneapolis Center
11:27AM 45.0222 -90.8286 105° East 446 513 23,000  Level Minneapolis Center
11:28AM 44.9914 -90.6642 105° East 436 502 23,000  Level Minneapolis Center
11:29AM 44.9550 -90.4672 105° East 433 498 23,000  Level Minneapolis Center
11:30AM 44.9233 -90.3044 105° East 431 496 23,000  Level Minneapolis Center
11:31AM 44.8925 -90.1425 105° East 430 495 23,000  Level Minneapolis Center
11:32AM 44.8614 -89.9814 105° East 427 491 23,000  Level Minneapolis Center
11:33AM 44.8294 -89.8211 106° East 427 491 23,000  Level Minneapolis Center
11:34AM 44.7933 -89.6300 105° East 429 494 23,000 -180 Level Minneapolis Center
11:35AM 44.7608 -89.4703 106° East 426 490 22,700 -660 Descending Minneapolis Center
11:36AM 44.7297 -89.3117 105° East 424 488 21,700 -2,100 Descending Minneapolis Center
11:38AM 44.6961 -89.1469 106° East 409 471 18,500 -2,700 Descending Minneapolis Center
11:39AM 44.6692 -89.0114 106° East 397 457 16,200 -2,100 Descending Minneapolis Center
11:40AM 44.6414 -88.8778 106° East 366 421 14,200 -1,980 Descending Minneapolis Center
11:41AM 44.6169 -88.7544 106° East 341 392 12,200 -2,160 Descending Minneapolis Center
11:42AM 44.6147 -88.6142 91° East 312 359 9,800 -2,100 Descending Minneapolis Center
11:43AM 44.6219 -88.4981 85° East 301 346 7,900 -1,800 Descending Minneapolis Center
11:44AM 44.6264 -88.3886 87° East 289 333 6,200 -1,680 Descending Minneapolis Center
11:45AM 44.6300 -88.2856 87° East 273 314 4,500 -1,500 Descending Minneapolis Center
11:46AM 44.6336 -88.1858 87° East 262 302 3,100 -780 Descending Minneapolis Center
11:47AM 44.5953 -88.1431 142° Southeast 204 235 3,000 -540 Descending Minneapolis Center
11:48AM 44.5450 -88.1306 170° South 171 197 2,100 -900 Descending Minneapolis Center
11:50AM 44.4833 -88.1167 173° South  Level FlightAware Approximate
11:57AM 44.4846 -88.1297 173° South  Level Estimated
11:58AM 44.4846 -88.1297 173° South  Level Estimated